Altus, OK

3:29 AM CST on January 26, 2015 (GMT -0600)
Altus Air Force Base | Change Station
CLOSE
Current Station
Airport
Location: Altus AFB,
Elevation: 1378 ft
Nearby Weather Stations

Elev 1378 ft 34.67 °N, 99.27 °W | Updated 31 minutes ago

Clear
Clear
35 °F
Feels Like 32 °F
N
4
Wind Variable Wind from WSW

Today
High -- | Low -- °F
--% Chance of Precip.
Yesterday
High -- | Low -- °F
Precip. -- in
7:39 AM 6:00 PM
Waxing Crescent, 41% visible
Pressure 30.21 in
Visibility 10.0 miles
Clouds Clear
Windchill 32 °F
Dew Point 28 °F
Humidity 77%
Rainfall 0.00 in
Snow Depth Not available.
UV 0 out of 12
Pollen 6.60 out of 12
Air Quality Not available.
Flu Activity Not available.
METAR KLTS 260858Z AUTO 25003KT 10SM CLR 02/M02 A3020 RMK AO2 SLP228 T00161020 55004 $

More Conditions Fewer Conditions

Pressure 30.21 in
Visibility 10.0 miles
Clouds Clear
Windchill 32 °F
Dew Point 28 °F
Humidity 77%
Rainfall 0.00 in
Snow Depth Not available.
UV 0 out of 12
Pollen 6.60 out of 12
Air Quality Not available.
Flu Activity Not available.
METAR KLTS 260858Z AUTO 25003KT 10SM CLR 02/M02 A3020 RMK AO2 SLP228 T00161020 55004 $

More Conditions Fewer Conditions

10-Day Weather Forecast

Almanac

Astronomy

Jan. 26, 2015 Rise Set
Actual Time
Civil Twilight
Nautical Twilight
Astronomical Twilight
Moon
Length of Visible Light
Length of Day
Tomorrow will be .
, % of the Moon is Illuminated

Today's Extremes

State Highs State Lows

Community

WunderPhotos

Upload Photos

1,790,163 photos uploaded!

WunderBlogs® & News

Nearby

Air Quality

  Air Quality AQ Index Pollutant
Not available.

Snow Depth

Station Depth Elevation

Earthquake Activity

City Distance Mag. Time & Date
Minimum magnitude displayed is 2.5.

Coastal Water Temperatures

Place Temperature

Nearby Weather Stations